Nobitz, Germany

1:13 PM CET on December 06, 2016 (GMT +0100)
Kotteritz | | Change Station

Elev 700 ft 50.97 °N, 12.47 °E | Updated 21 seconds ago

Mostly Cloudy
Mostly Cloudy
33.6 °F
Feels Like 34 °F
N
0.2
Wind Variable Wind from South
Gusts 2.5 mph

Today
High -- | Low -- °F
--% Chance of Precip.
Yesterday
High -- | Low -- °F
Precip. -- in
Pressure 30.45 in
Visibility 6.2 miles
Clouds Mostly Cloudy 3800 ft
Windchill 34 °F
Dew Point 21 °F
Humidity 59%
Rainfall 0.00 in
Snow Depth Not available.
7:57 AM 4:04 PM
Waxing Crescent, 41% visible
METAR EDDP 061150Z 22008KT 9999 BKN038 00/M03 Q1031 NOSIG
Pressure 30.45 in
Visibility 6.2 miles
Clouds Mostly Cloudy 3800 ft
Windchill 34 °F
Dew Point 21 °F
Humidity 59%
Rainfall 0.00 in
Snow Depth Not available.
7:57 AM 4:04 PM
Waxing Crescent, 41% visible
METAR EDDP 061150Z 22008KT 9999 BKN038 00/M03 Q1031 NOSIG

10-Day Weather Forecast

×

Almanac

Astronomy

Dec. 06, 2016 Rise Set
Actual Time
Civil Twilight
Nautical Twilight
Astronomical Twilight
Moon
Length of Visible Light
Length of Day
Tomorrow will be .
, % of the Moon is Illuminated

Today's Extremes

Country Highs Country Lows

Community

WunderPhotos

Upload Photos

1,955,936 photos uploaded!

WunderBlog® & News

Nearby

Air Quality

  Air Quality AQ Index Pollutant
Not available.

Snow Depth

Station Depth Elevation

Earthquake Activity

City Distance Mag. Time & Date
Minimum magnitude displayed is 2.5.

Coastal Water Temperatures

Place Temperature

Stations

Nearby Weather Stations

Station Location Temp. Windchill Dew Point Humidity Wind Precip. Elev Updated Type